sensor_id;sensor_type;location;lat;lon;timestamp;temperature;humidity
2897;DHT22;1458;49.728;9.228;2022-12-07T00:01:55;2.80;99.90
2897;DHT22;1458;49.728;9.228;2022-12-07T00:04:24;2.80;99.90
2897;DHT22;1458;49.728;9.228;2022-12-07T00:06:52;2.80;99.90
2897;DHT22;1458;49.728;9.228;2022-12-07T00:09:20;2.80;99.90
2897;DHT22;1458;49.728;9.228;2022-12-07T00:11:49;2.80;99.90
2897;DHT22;1458;49.728;9.228;2022-12-07T00:14:18;2.80;99.90
2897;DHT22;1458;49.728;9.228;2022-12-07T00:16:45;2.90;99.90
2897;DHT22;1458;49.728;9.228;2022-12-07T00:19:16;3.00;99.90
2897;DHT22;1458;49.728;9.228;2022-12-07T00:21:44;3.00;99.90
2897;DHT22;1458;49.728;9.228;2022-12-07T00:24:12;3.00;99.90
2897;DHT22;1458;49.728;9.228;2022-12-07T00:26:41;2.80;99.90
2897;DHT22;1458;49.728;9.228;2022-12-07T00:29:13;2.90;99.90
2897;DHT22;1458;49.728;9.228;2022-12-07T00:31:42;2.80;99.90
2897;DHT22;1458;49.728;9.228;2022-12-07T00:34:13;2.70;99.90
2897;DHT22;1458;49.728;9.228;2022-12-07T00:36:43;2.80;99.90
2897;DHT22;1458;49.728;9.228;2022-12-07T00:39:11;2.80;99.90
2897;DHT22;1458;49.728;9.228;2022-12-07T00:41:39;3.00;99.90
2897;DHT22;1458;49.728;9.228;2022-12-07T00:44:07;2.90;99.90
2897;DHT22;1458;49.728;9.228;2022-12-07T00:46:34;2.80;99.90
2897;DHT22;1458;49.728;9.228;2022-12-07T00:49:01;3.10;99.90
2897;DHT22;1458;49.728;9.228;2022-12-07T00:51:29;3.00;99.90
2897;DHT22;1458;49.728;9.228;2022-12-07T00:53:57;2.90;99.90
2897;DHT22;1458;49.728;9.228;2022-12-07T00:56:26;2.80;99.90
2897;DHT22;1458;49.728;9.228;2022-12-07T00:58:56;2.80;99.90
2897;DHT22;1458;49.728;9.228;2022-12-07T01:01:27;2.90;99.90
2897;DHT22;1458;49.728;9.228;2022-12-07T01:03:55;2.80;99.90
2897;DHT22;1458;49.728;9.228;2022-12-07T01:06:23;2.90;99.90
2897;DHT22;1458;49.728;9.228;2022-12-07T01:08:52;2.80;99.90
2897;DHT22;1458;49.728;9.228;2022-12-07T01:11:23;2.70;99.90
2897;DHT22;1458;49.728;9.228;2022-12-07T01:13:52;2.70;99.90
2897;DHT22;1458;49.728;9.228;2022-12-07T01:16:22;2.70;99.90
2897;DHT22;1458;49.728;9.228;2022-12-07T01:18:53;2.70;99.90
2897;DHT22;1458;49.728;9.228;2022-12-07T01:21:23;2.80;99.90
2897;DHT22;1458;49.728;9.228;2022-12-07T01:23:51;3.10;99.90
2897;DHT22;1458;49.728;9.228;2022-12-07T01:26:22;3.20;99.90
2897;DHT22;1458;49.728;9.228;2022-12-07T01:28:50;3.20;99.90
2897;DHT22;1458;49.728;9.228;2022-12-07T01:31:21;3.10;99.90
2897;DHT22;1458;49.728;9.228;2022-12-07T01:33:51;3.10;99.90
2897;DHT22;1458;49.728;9.228;2022-12-07T01:36:21;3.10;99.90
2897;DHT22;1458;49.728;9.228;2022-12-07T01:38:51;3.00;99.90
2897;DHT22;1458;49.728;9.228;2022-12-07T01:41:25;3.00;99.90
2897;DHT22;1458;49.728;9.228;2022-12-07T01:44:23;3.10;99.90
2897;DHT22;1458;49.728;9.228;2022-12-07T01:46:53;3.30;99.90
2897;DHT22;1458;49.728;9.228;2022-12-07T01:49:29;3.20;99.90
2897;DHT22;1458;49.728;9.228;2022-12-07T01:52:15;3.00;99.90
2897;DHT22;1458;49.728;9.228;2022-12-07T01:54:45;3.10;99.90
2897;DHT22;1458;49.728;9.228;2022-12-07T01:57:16;3.30;99.90
2897;DHT22;1458;49.728;9.228;2022-12-07T01:59:45;3.20;99.90
2897;DHT22;1458;49.728;9.228;2022-12-07T02:02:20;3.00;99.90
2897;DHT22;1458;49.728;9.228;2022-12-07T02:04:51;3.00;99.90
2897;DHT22;1458;49.728;9.228;2022-12-07T02:07:19;2.90;99.90
2897;DHT22;1458;49.728;9.228;2022-12-07T02:09:47;3.10;99.90
2897;DHT22;1458;49.728;9.228;2022-12-07T02:12:16;2.90;99.90
2897;DHT22;1458;49.728;9.228;2022-12-07T02:14:44;3.00;99.90
2897;DHT22;1458;49.728;9.228;2022-12-07T02:17:16;3.00;99.90
2897;DHT22;1458;49.728;9.228;2022-12-07T02:20:08;3.10;99.90
2897;DHT22;1458;49.728;9.228;2022-12-07T02:26:32;3.00;99.90
2897;DHT22;1458;49.728;9.228;2022-12-07T02:29:24;3.00;99.90
2897;DHT22;1458;49.728;9.228;2022-12-07T02:31:59;3.20;99.90
2897;DHT22;1458;49.728;9.228;2022-12-07T02:34:37;3.20;99.90
2897;DHT22;1458;49.728;9.228;2022-12-07T02:37:16;3.20;99.90
2897;DHT22;1458;49.728;9.228;2022-12-07T02:39:50;3.20;99.90
2897;DHT22;1458;49.728;9.228;2022-12-07T02:42:32;3.10;99.90
2897;DHT22;1458;49.728;9.228;2022-12-07T02:45:05;3.10;99.90
2897;DHT22;1458;49.728;9.228;2022-12-07T02:47:35;3.10;99.90
2897;DHT22;1458;49.728;9.228;2022-12-07T02:50:05;3.30;99.90
2897;DHT22;1458;49.728;9.228;2022-12-07T02:52:34;3.20;99.90
2897;DHT22;1458;49.728;9.228;2022-12-07T02:55:01;3.20;99.90
2897;DHT22;1458;49.728;9.228;2022-12-07T02:57:53;3.20;99.90
2897;DHT22;1458;49.728;9.228;2022-12-07T03:00:26;3.20;99.90
2897;DHT22;1458;49.728;9.228;2022-12-07T03:02:58;3.30;99.90
2897;DHT22;1458;49.728;9.228;2022-12-07T03:05:41;3.50;99.90
2897;DHT22;1458;49.728;9.228;2022-12-07T03:08:17;3.70;99.90
2897;DHT22;1458;49.728;9.228;2022-12-07T03:10:54;3.50;99.90
2897;DHT22;1458;49.728;9.228;2022-12-07T03:13:28;3.50;99.90
2897;DHT22;1458;49.728;9.228;2022-12-07T03:16:03;3.40;99.90
2897;DHT22;1458;49.728;9.228;2022-12-07T03:18:36;3.50;99.90
2897;DHT22;1458;49.728;9.228;2022-12-07T03:21:10;3.40;99.90
2897;DHT22;1458;49.728;9.228;2022-12-07T03:23:42;3.50;99.90
2897;DHT22;1458;49.728;9.228;2022-12-07T03:26:13;3.60;99.90
2897;DHT22;1458;49.728;9.228;2022-12-07T03:28:46;3.80;99.90
2897;DHT22;1458;49.728;9.228;2022-12-07T03:31:19;3.70;99.90
2897;DHT22;1458;49.728;9.228;2022-12-07T03:33:54;3.70;99.90
2897;DHT22;1458;49.728;9.228;2022-12-07T03:36:30;3.70;99.90
2897;DHT22;1458;49.728;9.228;2022-12-07T03:39:08;3.60;99.90
2897;DHT22;1458;49.728;9.228;2022-12-07T03:41:40;3.60;99.90
2897;DHT22;1458;49.728;9.228;2022-12-07T03:44:08;3.70;99.90
2897;DHT22;1458;49.728;9.228;2022-12-07T03:46:43;3.60;99.90
2897;DHT22;1458;49.728;9.228;2022-12-07T03:49:16;3.70;99.90
2897;DHT22;1458;49.728;9.228;2022-12-07T03:51:54;3.70;99.90
2897;DHT22;1458;49.728;9.228;2022-12-07T03:54:28;3.70;99.90
2897;DHT22;1458;49.728;9.228;2022-12-07T03:56:57;3.80;99.90
2897;DHT22;1458;49.728;9.228;2022-12-07T03:59:25;3.80;99.90
2897;DHT22;1458;49.728;9.228;2022-12-07T04:01:56;3.80;99.90
2897;DHT22;1458;49.728;9.228;2022-12-07T04:04:24;3.70;99.90
2897;DHT22;1458;49.728;9.228;2022-12-07T04:06:52;3.90;99.90
2897;DHT22;1458;49.728;9.228;2022-12-07T04:09:21;3.90;99.90
2897;DHT22;1458;49.728;9.228;2022-12-07T04:11:48;4.10;99.90
2897;DHT22;1458;49.728;9.228;2022-12-07T04:14:15;4.10;99.90
2897;DHT22;1458;49.728;9.228;2022-12-07T04:16:46;4.00;99.90
2897;DHT22;1458;49.728;9.228;2022-12-07T04:19:16;3.90;99.90
2897;DHT22;1458;49.728;9.228;2022-12-07T04:21:44;3.90;99.90
2897;DHT22;1458;49.728;9.228;2022-12-07T04:24:13;4.10;99.90
2897;DHT22;1458;49.728;9.228;2022-12-07T04:26:41;4.10;99.90
2897;DHT22;1458;49.728;9.228;2022-12-07T04:29:09;4.20;99.90
2897;DHT22;1458;49.728;9.228;2022-12-07T04:31:37;4.10;99.90
2897;DHT22;1458;49.728;9.228;2022-12-07T04:34:05;4.10;99.90
2897;DHT22;1458;49.728;9.228;2022-12-07T04:36:35;4.10;99.90
2897;DHT22;1458;49.728;9.228;2022-12-07T04:39:03;4.20;99.90
2897;DHT22;1458;49.728;9.228;2022-12-07T04:41:31;4.10;99.90
2897;DHT22;1458;49.728;9.228;2022-12-07T04:44:00;4.20;99.90
2897;DHT22;1458;49.728;9.228;2022-12-07T04:46:30;4.10;99.90
2897;DHT22;1458;49.728;9.228;2022-12-07T04:48:58;4.10;99.90
2897;DHT22;1458;49.728;9.228;2022-12-07T04:51:28;4.10;99.90
2897;DHT22;1458;49.728;9.228;2022-12-07T04:53:57;4.10;99.90
2897;DHT22;1458;49.728;9.228;2022-12-07T04:56:25;4.10;99.90
2897;DHT22;1458;49.728;9.228;2022-12-07T04:58:53;4.20;99.90
2897;DHT22;1458;49.728;9.228;2022-12-07T05:01:21;4.20;99.90
2897;DHT22;1458;49.728;9.228;2022-12-07T05:03:49;4.10;99.90
2897;DHT22;1458;49.728;9.228;2022-12-07T05:06:17;4.10;99.90
2897;DHT22;1458;49.728;9.228;2022-12-07T05:08:44;4.10;99.90
2897;DHT22;1458;49.728;9.228;2022-12-07T05:11:13;4.10;99.90
2897;DHT22;1458;49.728;9.228;2022-12-07T05:14:02;4.10;99.90
2897;DHT22;1458;49.728;9.228;2022-12-07T05:16:30;4.40;99.90
2897;DHT22;1458;49.728;9.228;2022-12-07T05:18:57;4.50;99.90
2897;DHT22;1458;49.728;9.228;2022-12-07T05:21:25;4.50;99.90
2897;DHT22;1458;49.728;9.228;2022-12-07T05:23:52;4.40;99.90
2897;DHT22;1458;49.728;9.228;2022-12-07T05:26:21;4.30;99.90
2897;DHT22;1458;49.728;9.228;2022-12-07T05:28:50;4.30;99.90
2897;DHT22;1458;49.728;9.228;2022-12-07T05:31:18;4.40;99.90
2897;DHT22;1458;49.728;9.228;2022-12-07T05:33:46;4.30;99.90
2897;DHT22;1458;49.728;9.228;2022-12-07T05:36:13;4.40;99.90
2897;DHT22;1458;49.728;9.228;2022-12-07T05:38:41;4.40;99.90
2897;DHT22;1458;49.728;9.228;2022-12-07T05:41:09;4.50;99.90
2897;DHT22;1458;49.728;9.228;2022-12-07T05:44:00;4.30;99.90
2897;DHT22;1458;49.728;9.228;2022-12-07T05:46:28;4.40;99.90
2897;DHT22;1458;49.728;9.228;2022-12-07T05:48:55;4.40;99.90
2897;DHT22;1458;49.728;9.228;2022-12-07T05:51:22;4.50;99.90
2897;DHT22;1458;49.728;9.228;2022-12-07T05:53:50;4.40;99.90
2897;DHT22;1458;49.728;9.228;2022-12-07T05:56:17;4.30;99.90
2897;DHT22;1458;49.728;9.228;2022-12-07T05:58:45;4.20;99.90
2897;DHT22;1458;49.728;9.228;2022-12-07T06:01:31;4.30;99.90
2897;DHT22;1458;49.728;9.228;2022-12-07T06:03:58;4.50;99.90
2897;DHT22;1458;49.728;9.228;2022-12-07T06:06:26;4.40;99.90
2897;DHT22;1458;49.728;9.228;2022-12-07T06:08:53;4.40;99.90
2897;DHT22;1458;49.728;9.228;2022-12-07T06:11:20;4.40;99.90
2897;DHT22;1458;49.728;9.228;2022-12-07T06:14:06;4.40;99.90
2897;DHT22;1458;49.728;9.228;2022-12-07T06:16:35;4.40;99.90
2897;DHT22;1458;49.728;9.228;2022-12-07T06:19:02;4.30;99.90
2897;DHT22;1458;49.728;9.228;2022-12-07T06:21:29;4.30;99.90
2897;DHT22;1458;49.728;9.228;2022-12-07T06:23:57;4.30;99.90
2897;DHT22;1458;49.728;9.228;2022-12-07T06:26:24;4.40;99.90
2897;DHT22;1458;49.728;9.228;2022-12-07T06:28:51;4.30;99.90
2897;DHT22;1458;49.728;9.228;2022-12-07T06:31:19;4.30;99.90
2897;DHT22;1458;49.728;9.228;2022-12-07T06:33:48;4.40;99.90
2897;DHT22;1458;49.728;9.228;2022-12-07T06:36:15;4.30;99.90
2897;DHT22;1458;49.728;9.228;2022-12-07T06:38:42;4.30;99.90
2897;DHT22;1458;49.728;9.228;2022-12-07T06:41:10;4.30;99.90
2897;DHT22;1458;49.728;9.228;2022-12-07T06:43:37;4.40;99.90
2897;DHT22;1458;49.728;9.228;2022-12-07T06:46:04;4.30;99.90
2897;DHT22;1458;49.728;9.228;2022-12-07T06:48:32;4.30;99.90
2897;DHT22;1458;49.728;9.228;2022-12-07T06:51:00;4.30;99.90
2897;DHT22;1458;49.728;9.228;2022-12-07T06:53:28;4.40;99.90
2897;DHT22;1458;49.728;9.228;2022-12-07T06:55:55;4.30;99.90
2897;DHT22;1458;49.728;9.228;2022-12-07T06:58:22;4.50;99.90
2897;DHT22;1458;49.728;9.228;2022-12-07T07:00:50;4.40;99.90
2897;DHT22;1458;49.728;9.228;2022-12-07T07:03:17;4.40;99.90
2897;DHT22;1458;49.728;9.228;2022-12-07T07:05:45;4.40;99.90
2897;DHT22;1458;49.728;9.228;2022-12-07T07:08:14;4.30;99.90
2897;DHT22;1458;49.728;9.228;2022-12-07T07:10:41;4.50;99.90
2897;DHT22;1458;49.728;9.228;2022-12-07T07:13:08;4.50;99.90
2897;DHT22;1458;49.728;9.228;2022-12-07T07:15:37;4.50;99.90
2897;DHT22;1458;49.728;9.228;2022-12-07T07:18:05;4.50;99.90
2897;DHT22;1458;49.728;9.228;2022-12-07T07:20:32;4.50;99.90
2897;DHT22;1458;49.728;9.228;2022-12-07T07:23:00;4.70;99.90
2897;DHT22;1458;49.728;9.228;2022-12-07T07:25:29;4.70;99.90
2897;DHT22;1458;49.728;9.228;2022-12-07T07:27:56;4.60;99.90
2897;DHT22;1458;49.728;9.228;2022-12-07T07:30:24;4.50;99.90
2897;DHT22;1458;49.728;9.228;2022-12-07T07:32:56;4.50;99.90
2897;DHT22;1458;49.728;9.228;2022-12-07T07:35:23;4.50;99.90
2897;DHT22;1458;49.728;9.228;2022-12-07T07:37:51;4.60;99.90
2897;DHT22;1458;49.728;9.228;2022-12-07T07:40:18;4.60;99.90
2897;DHT22;1458;49.728;9.228;2022-12-07T07:42:49;4.60;99.90
2897;DHT22;1458;49.728;9.228;2022-12-07T07:45:17;4.60;99.90
2897;DHT22;1458;49.728;9.228;2022-12-07T07:47:44;4.50;99.90
2897;DHT22;1458;49.728;9.228;2022-12-07T07:50:11;4.60;99.90
2897;DHT22;1458;49.728;9.228;2022-12-07T07:52:39;4.70;99.90
2897;DHT22;1458;49.728;9.228;2022-12-07T07:55:07;4.60;99.90
2897;DHT22;1458;49.728;9.228;2022-12-07T07:57:35;4.60;99.90
2897;DHT22;1458;49.728;9.228;2022-12-07T08:00:06;4.60;99.90
2897;DHT22;1458;49.728;9.228;2022-12-07T08:02:41;4.60;99.90
2897;DHT22;1458;49.728;9.228;2022-12-07T08:05:10;4.60;99.90
2897;DHT22;1458;49.728;9.228;2022-12-07T08:07:38;4.60;99.90
2897;DHT22;1458;49.728;9.228;2022-12-07T08:10:07;4.60;99.90
2897;DHT22;1458;49.728;9.228;2022-12-07T08:12:37;4.70;99.90
2897;DHT22;1458;49.728;9.228;2022-12-07T08:15:29;4.70;99.90
2897;DHT22;1458;49.728;9.228;2022-12-07T08:17:57;4.70;99.90
2897;DHT22;1458;49.728;9.228;2022-12-07T08:20:25;4.70;99.90
2897;DHT22;1458;49.728;9.228;2022-12-07T08:22:52;5.00;99.90
2897;DHT22;1458;49.728;9.228;2022-12-07T08:25:20;5.00;99.90
2897;DHT22;1458;49.728;9.228;2022-12-07T08:27:48;4.90;99.90
2897;DHT22;1458;49.728;9.228;2022-12-07T08:30:15;4.90;99.90
2897;DHT22;1458;49.728;9.228;2022-12-07T08:32:45;4.90;99.90
2897;DHT22;1458;49.728;9.228;2022-12-07T08:35:14;4.80;99.90
2897;DHT22;1458;49.728;9.228;2022-12-07T08:37:42;4.90;99.90
2897;DHT22;1458;49.728;9.228;2022-12-07T08:40:10;5.00;99.90
2897;DHT22;1458;49.728;9.228;2022-12-07T08:42:41;5.10;99.90
2897;DHT22;1458;49.728;9.228;2022-12-07T08:45:11;5.00;99.90
2897;DHT22;1458;49.728;9.228;2022-12-07T08:47:43;5.00;99.90
2897;DHT22;1458;49.728;9.228;2022-12-07T08:50:14;5.00;99.90
2897;DHT22;1458;49.728;9.228;2022-12-07T08:52:41;4.90;99.90
2897;DHT22;1458;49.728;9.228;2022-12-07T08:55:10;5.00;99.90
2897;DHT22;1458;49.728;9.228;2022-12-07T08:57:39;4.90;99.90
2897;DHT22;1458;49.728;9.228;2022-12-07T09:00:09;5.00;99.90
2897;DHT22;1458;49.728;9.228;2022-12-07T09:02:37;5.10;99.90
2897;DHT22;1458;49.728;9.228;2022-12-07T09:05:06;5.10;99.90
2897;DHT22;1458;49.728;9.228;2022-12-07T09:07:35;5.10;99.90
2897;DHT22;1458;49.728;9.228;2022-12-07T09:10:04;5.10;99.90
2897;DHT22;1458;49.728;9.228;2022-12-07T09:12:32;5.10;99.90
2897;DHT22;1458;49.728;9.228;2022-12-07T09:15:00;5.20;99.90
2897;DHT22;1458;49.728;9.228;2022-12-07T09:17:27;5.10;99.90
2897;DHT22;1458;49.728;9.228;2022-12-07T09:19:54;5.20;99.90
2897;DHT22;1458;49.728;9.228;2022-12-07T09:22:23;5.30;99.90
2897;DHT22;1458;49.728;9.228;2022-12-07T09:24:50;5.50;99.90
2897;DHT22;1458;49.728;9.228;2022-12-07T09:27:18;5.50;99.90
2897;DHT22;1458;49.728;9.228;2022-12-07T09:29:45;5.70;99.90
2897;DHT22;1458;49.728;9.228;2022-12-07T09:32:12;5.90;99.90
2897;DHT22;1458;49.728;9.228;2022-12-07T09:34:40;6.00;99.90
2897;DHT22;1458;49.728;9.228;2022-12-07T09:37:07;6.10;99.90
2897;DHT22;1458;49.728;9.228;2022-12-07T09:39:38;6.10;99.90
2897;DHT22;1458;49.728;9.228;2022-12-07T09:42:06;6.20;99.90
2897;DHT22;1458;49.728;9.228;2022-12-07T09:44:36;6.20;99.90
2897;DHT22;1458;49.728;9.228;2022-12-07T09:47:09;6.00;99.90
2897;DHT22;1458;49.728;9.228;2022-12-07T09:49:37;5.90;99.90
2897;DHT22;1458;49.728;9.228;2022-12-07T09:52:18;5.90;99.90
2897;DHT22;1458;49.728;9.228;2022-12-07T09:54:49;6.10;99.90
2897;DHT22;1458;49.728;9.228;2022-12-07T09:57:17;6.20;99.90
2897;DHT22;1458;49.728;9.228;2022-12-07T09:59:45;6.40;99.90
2897;DHT22;1458;49.728;9.228;2022-12-07T10:02:35;6.70;99.90
2897;DHT22;1458;49.728;9.228;2022-12-07T10:05:06;6.80;99.90
2897;DHT22;1458;49.728;9.228;2022-12-07T10:07:34;7.00;99.90
2897;DHT22;1458;49.728;9.228;2022-12-07T10:10:05;7.10;99.90
2897;DHT22;1458;49.728;9.228;2022-12-07T10:12:53;7.40;99.70
2897;DHT22;1458;49.728;9.228;2022-12-07T10:15:22;7.50;98.50
2897;DHT22;1458;49.728;9.228;2022-12-07T10:17:51;7.50;98.80
2897;DHT22;1458;49.728;9.228;2022-12-07T10:20:22;7.40;98.70
2897;DHT22;1458;49.728;9.228;2022-12-07T10:22:56;7.30;98.60
2897;DHT22;1458;49.728;9.228;2022-12-07T10:25:29;7.20;98.20
2897;DHT22;1458;49.728;9.228;2022-12-07T10:28:00;7.30;97.90
2897;DHT22;1458;49.728;9.228;2022-12-07T10:30:51;7.20;97.70
2897;DHT22;1458;49.728;9.228;2022-12-07T10:33:30;7.10;97.20
2897;DHT22;1458;49.728;9.228;2022-12-07T10:36:09;7.20;97.60
2897;DHT22;1458;49.728;9.228;2022-12-07T10:38:45;7.20;97.00
2897;DHT22;1458;49.728;9.228;2022-12-07T10:41:16;7.10;96.90
2897;DHT22;1458;49.728;9.228;2022-12-07T10:43:48;7.10;96.70
2897;DHT22;1458;49.728;9.228;2022-12-07T10:46:40;7.00;97.40
2897;DHT22;1458;49.728;9.228;2022-12-07T10:49:40;6.90;97.70
2897;DHT22;1458;49.728;9.228;2022-12-07T10:52:39;7.10;97.40
2897;DHT22;1458;49.728;9.228;2022-12-07T10:55:20;7.00;97.30
2897;DHT22;1458;49.728;9.228;2022-12-07T10:58:08;6.90;97.70
2897;DHT22;1458;49.728;9.228;2022-12-07T11:00:50;6.90;98.20
2897;DHT22;1458;49.728;9.228;2022-12-07T11:03:32;6.90;97.40
2897;DHT22;1458;49.728;9.228;2022-12-07T11:06:14;7.00;96.50
2897;DHT22;1458;49.728;9.228;2022-12-07T11:08:57;6.80;96.30
2897;DHT22;1458;49.728;9.228;2022-12-07T11:11:34;6.50;96.70
2897;DHT22;1458;49.728;9.228;2022-12-07T11:14:15;6.60;97.90
2897;DHT22;1458;49.728;9.228;2022-12-07T11:16:56;6.70;98.40
2897;DHT22;1458;49.728;9.228;2022-12-07T11:19:40;6.60;98.10
2897;DHT22;1458;49.728;9.228;2022-12-07T11:22:22;6.50;97.80
2897;DHT22;1458;49.728;9.228;2022-12-07T11:24:57;6.40;98.00
2897;DHT22;1458;49.728;9.228;2022-12-07T11:27:36;6.50;98.30
2897;DHT22;1458;49.728;9.228;2022-12-07T11:30:13;6.50;97.70
2897;DHT22;1458;49.728;9.228;2022-12-07T11:32:55;6.30;98.10
2897;DHT22;1458;49.728;9.228;2022-12-07T11:35:35;6.30;98.50
2897;DHT22;1458;49.728;9.228;2022-12-07T11:38:11;6.20;98.20
2897;DHT22;1458;49.728;9.228;2022-12-07T11:40:42;6.30;98.30
2897;DHT22;1458;49.728;9.228;2022-12-07T11:43:18;6.20;98.40
2897;DHT22;1458;49.728;9.228;2022-12-07T11:45:54;6.30;98.80
2897;DHT22;1458;49.728;9.228;2022-12-07T11:48:30;6.30;98.70
2897;DHT22;1458;49.728;9.228;2022-12-07T11:51:02;6.30;98.20
2897;DHT22;1458;49.728;9.228;2022-12-07T11:53:35;6.40;98.40
2897;DHT22;1458;49.728;9.228;2022-12-07T11:56:09;6.40;98.70
2897;DHT22;1458;49.728;9.228;2022-12-07T11:58:47;6.40;98.50
2897;DHT22;1458;49.728;9.228;2022-12-07T12:01:27;6.40;98.10
2897;DHT22;1458;49.728;9.228;2022-12-07T12:04:06;6.40;98.70
2897;DHT22;1458;49.728;9.228;2022-12-07T12:06:41;6.30;98.30
2897;DHT22;1458;49.728;9.228;2022-12-07T12:09:13;6.30;98.80
2897;DHT22;1458;49.728;9.228;2022-12-07T12:14:57;6.40;98.60
2897;DHT22;1458;49.728;9.228;2022-12-07T12:18:10;6.40;98.80
2897;DHT22;1458;49.728;9.228;2022-12-07T12:20:46;6.30;98.80
2897;DHT22;1458;49.728;9.228;2022-12-07T12:23:18;6.40;98.70
2897;DHT22;1458;49.728;9.228;2022-12-07T12:25:48;6.30;98.10
2897;DHT22;1458;49.728;9.228;2022-12-07T12:28:23;6.40;97.90
2897;DHT22;1458;49.728;9.228;2022-12-07T12:31:15;6.30;98.30
2897;DHT22;1458;49.728;9.228;2022-12-07T12:33:46;6.30;98.50
2897;DHT22;1458;49.728;9.228;2022-12-07T12:36:24;6.30;98.90
2897;DHT22;1458;49.728;9.228;2022-12-07T12:39:10;6.30;98.20
2897;DHT22;1458;49.728;9.228;2022-12-07T12:41:59;6.30;98.10
2897;DHT22;1458;49.728;9.228;2022-12-07T12:45:20;6.40;98.00
2897;DHT22;1458;49.728;9.228;2022-12-07T12:54:14;6.30;98.00
2897;DHT22;1458;49.728;9.228;2022-12-07T12:56:46;6.20;98.20
2897;DHT22;1458;49.728;9.228;2022-12-07T12:59:28;6.20;98.30
2897;DHT22;1458;49.728;9.228;2022-12-07T13:02:10;6.20;98.10
2897;DHT22;1458;49.728;9.228;2022-12-07T13:04:53;6.30;98.10
2897;DHT22;1458;49.728;9.228;2022-12-07T13:07:51;6.30;98.50
2897;DHT22;1458;49.728;9.228;2022-12-07T13:10:39;6.20;98.40
2897;DHT22;1458;49.728;9.228;2022-12-07T13:13:33;6.30;98.80
2897;DHT22;1458;49.728;9.228;2022-12-07T13:22:53;6.30;99.30
2897;DHT22;1458;49.728;9.228;2022-12-07T13:25:33;6.30;98.80
2897;DHT22;1458;49.728;9.228;2022-12-07T13:28:13;6.40;99.00
2897;DHT22;1458;49.728;9.228;2022-12-07T13:30:47;6.40;98.90
2897;DHT22;1458;49.728;9.228;2022-12-07T13:33:21;6.40;98.60
2897;DHT22;1458;49.728;9.228;2022-12-07T13:35:53;6.50;97.50
2897;DHT22;1458;49.728;9.228;2022-12-07T13:38:29;6.50;97.70
2897;DHT22;1458;49.728;9.228;2022-12-07T13:41:03;6.60;97.90
2897;DHT22;1458;49.728;9.228;2022-12-07T13:43:43;6.60;97.90
2897;DHT22;1458;49.728;9.228;2022-12-07T13:46:12;6.50;97.90
2897;DHT22;1458;49.728;9.228;2022-12-07T13:48:45;6.50;97.90
2897;DHT22;1458;49.728;9.228;2022-12-07T13:51:19;6.50;98.10
2897;DHT22;1458;49.728;9.228;2022-12-07T13:53:51;6.50;97.70
2897;DHT22;1458;49.728;9.228;2022-12-07T13:56:21;6.50;97.50
2897;DHT22;1458;49.728;9.228;2022-12-07T13:58:51;6.50;97.30
2897;DHT22;1458;49.728;9.228;2022-12-07T14:01:20;6.50;97.70
2897;DHT22;1458;49.728;9.228;2022-12-07T14:03:47;6.40;97.10
2897;DHT22;1458;49.728;9.228;2022-12-07T14:06:23;6.30;97.80
2897;DHT22;1458;49.728;9.228;2022-12-07T14:09:14;6.30;98.30
2897;DHT22;1458;49.728;9.228;2022-12-07T14:11:45;6.40;98.00
2897;DHT22;1458;49.728;9.228;2022-12-07T14:14:16;6.50;97.90
2897;DHT22;1458;49.728;9.228;2022-12-07T14:17:00;6.50;97.50
2897;DHT22;1458;49.728;9.228;2022-12-07T14:19:46;6.50;97.30
2897;DHT22;1458;49.728;9.228;2022-12-07T14:22:26;6.50;97.90
2897;DHT22;1458;49.728;9.228;2022-12-07T14:25:09;6.40;97.90
2897;DHT22;1458;49.728;9.228;2022-12-07T14:27:50;6.50;97.50
2897;DHT22;1458;49.728;9.228;2022-12-07T14:30:21;6.40;97.00
2897;DHT22;1458;49.728;9.228;2022-12-07T14:32:53;6.40;97.90
2897;DHT22;1458;49.728;9.228;2022-12-07T14:35:22;6.30;97.80
2897;DHT22;1458;49.728;9.228;2022-12-07T14:37:49;6.20;97.60
2897;DHT22;1458;49.728;9.228;2022-12-07T14:40:20;6.10;97.80
2897;DHT22;1458;49.728;9.228;2022-12-07T14:42:51;6.10;97.70
2897;DHT22;1458;49.728;9.228;2022-12-07T14:45:22;6.00;97.70
2897;DHT22;1458;49.728;9.228;2022-12-07T14:47:49;6.00;98.40
2897;DHT22;1458;49.728;9.228;2022-12-07T14:50:18;6.10;98.00
2897;DHT22;1458;49.728;9.228;2022-12-07T14:52:49;6.10;98.10
2897;DHT22;1458;49.728;9.228;2022-12-07T14:55:24;6.10;98.50
2897;DHT22;1458;49.728;9.228;2022-12-07T14:57:52;5.90;99.50
2897;DHT22;1458;49.728;9.228;2022-12-07T15:00:21;5.60;99.60
2897;DHT22;1458;49.728;9.228;2022-12-07T15:02:50;5.60;99.90
2897;DHT22;1458;49.728;9.228;2022-12-07T15:05:18;5.50;99.90
2897;DHT22;1458;49.728;9.228;2022-12-07T15:07:46;5.50;99.90
2897;DHT22;1458;49.728;9.228;2022-12-07T15:10:16;5.50;99.90
2897;DHT22;1458;49.728;9.228;2022-12-07T15:12:46;5.40;99.90
2897;DHT22;1458;49.728;9.228;2022-12-07T15:15:14;5.40;99.90
2897;DHT22;1458;49.728;9.228;2022-12-07T15:17:42;5.40;99.90
2897;DHT22;1458;49.728;9.228;2022-12-07T15:20:12;5.30;99.90
2897;DHT22;1458;49.728;9.228;2022-12-07T15:22:42;5.30;99.90
2897;DHT22;1458;49.728;9.228;2022-12-07T15:25:13;5.20;99.90
2897;DHT22;1458;49.728;9.228;2022-12-07T15:27:40;5.20;99.90
2897;DHT22;1458;49.728;9.228;2022-12-07T15:30:10;5.10;99.90
2897;DHT22;1458;49.728;9.228;2022-12-07T15:32:37;5.20;99.90
2897;DHT22;1458;49.728;9.228;2022-12-07T15:35:05;5.30;99.90
2897;DHT22;1458;49.728;9.228;2022-12-07T15:37:33;5.10;99.90
2897;DHT22;1458;49.728;9.228;2022-12-07T15:40:01;5.00;99.90
2897;DHT22;1458;49.728;9.228;2022-12-07T15:42:28;4.80;99.90
2897;DHT22;1458;49.728;9.228;2022-12-07T15:44:56;4.70;99.90
2897;DHT22;1458;49.728;9.228;2022-12-07T15:47:34;4.70;99.90
2897;DHT22;1458;49.728;9.228;2022-12-07T15:50:03;4.90;99.90
2897;DHT22;1458;49.728;9.228;2022-12-07T15:52:32;5.10;99.90
2897;DHT22;1458;49.728;9.228;2022-12-07T15:55:00;5.20;99.90
2897;DHT22;1458;49.728;9.228;2022-12-07T15:57:29;5.20;99.90
2897;DHT22;1458;49.728;9.228;2022-12-07T15:59:56;5.10;99.90
2897;DHT22;1458;49.728;9.228;2022-12-07T16:02:23;5.20;99.90
2897;DHT22;1458;49.728;9.228;2022-12-07T16:04:52;5.20;99.90
2897;DHT22;1458;49.728;9.228;2022-12-07T16:07:20;5.00;99.90
2897;DHT22;1458;49.728;9.228;2022-12-07T16:09:47;4.90;99.90
2897;DHT22;1458;49.728;9.228;2022-12-07T16:12:16;5.00;99.90
2897;DHT22;1458;49.728;9.228;2022-12-07T16:14:43;5.00;99.90
2897;DHT22;1458;49.728;9.228;2022-12-07T16:17:11;4.90;99.90
2897;DHT22;1458;49.728;9.228;2022-12-07T16:19:39;4.90;99.90
2897;DHT22;1458;49.728;9.228;2022-12-07T16:22:07;5.00;99.90
2897;DHT22;1458;49.728;9.228;2022-12-07T16:24:35;4.90;99.90
2897;DHT22;1458;49.728;9.228;2022-12-07T16:27:02;4.90;99.90
2897;DHT22;1458;49.728;9.228;2022-12-07T16:29:30;4.80;99.90
2897;DHT22;1458;49.728;9.228;2022-12-07T16:31:57;4.80;99.90
2897;DHT22;1458;49.728;9.228;2022-12-07T16:34:24;4.70;99.90
2897;DHT22;1458;49.728;9.228;2022-12-07T16:36:51;4.70;99.90
2897;DHT22;1458;49.728;9.228;2022-12-07T16:39:21;4.70;99.90
2897;DHT22;1458;49.728;9.228;2022-12-07T16:41:48;4.80;99.90
2897;DHT22;1458;49.728;9.228;2022-12-07T16:44:16;4.80;99.90
2897;DHT22;1458;49.728;9.228;2022-12-07T16:46:43;4.80;99.90
2897;DHT22;1458;49.728;9.228;2022-12-07T16:49:12;4.90;99.90
2897;DHT22;1458;49.728;9.228;2022-12-07T16:51:40;4.90;99.90
2897;DHT22;1458;49.728;9.228;2022-12-07T16:54:10;4.90;99.90
2897;DHT22;1458;49.728;9.228;2022-12-07T16:56:40;4.90;99.90
2897;DHT22;1458;49.728;9.228;2022-12-07T16:59:07;5.00;99.90
2897;DHT22;1458;49.728;9.228;2022-12-07T17:01:35;4.90;99.90
2897;DHT22;1458;49.728;9.228;2022-12-07T17:04:03;4.90;99.90
2897;DHT22;1458;49.728;9.228;2022-12-07T17:06:31;4.90;99.90
2897;DHT22;1458;49.728;9.228;2022-12-07T17:08:59;5.00;99.90